Whiteman AFB, Missouri
Current Conditions -  °F | °C
As of 5:58 PM on Saturday 22 Nov 2014 (Local Time) from KSZL Reporting Station
Clear Clear  
Wind Chill: 53°   Ceiling: Unl
Heat Index: 53°   Visibility: 10mi
Dew Point: 49°   Wind: 3mph
Humidity: 88%   Direction: 140°SE
Pressure: 29.81"   Gusts: NA
Location:  38.73°N, 93.55°W
Report Text: KSZL 222358Z AUTO 14003KT 10SM CLR 12/10 A2981 RMK AO2 SLP098 T01150096 10161 20114 401610045 57013 $
Loading
Personal Weather Stations






























Interactive Weather Map New forecast layout! Learn more

10-Day Weather Forecast

Advertisements
Track Severe Weather on mobile